sensor_id;sensor_type;location;lat;lon;timestamp;pressure;altitude;pressure_sealevel;temperature;humidity
54329;BME280;40710;51.120;13.136;2024-01-10T00:00:50;101014.44;;;-6.01;58.83
54329;BME280;40710;51.120;13.136;2024-01-10T00:03:16;101004.16;;;-5.80;58.78
54329;BME280;40710;51.120;13.136;2024-01-10T00:05:40;101009.38;;;-6.00;58.63
54329;BME280;40710;51.120;13.136;2024-01-10T00:08:05;101002.66;;;-5.75;58.42
54329;BME280;40710;51.120;13.136;2024-01-10T00:10:30;100994.38;;;-5.91;57.95
54329;BME280;40710;51.120;13.136;2024-01-10T00:12:55;101005.75;;;-6.05;58.46
54329;BME280;40710;51.120;13.136;2024-01-10T00:15:19;101002.16;;;-5.88;58.23
54329;BME280;40710;51.120;13.136;2024-01-10T00:17:44;100998.84;;;-6.07;58.19
54329;BME280;40710;51.120;13.136;2024-01-10T00:20:08;101001.00;;;-6.78;59.35
54329;BME280;40710;51.120;13.136;2024-01-10T00:22:33;101008.41;;;-7.04;60.83
54329;BME280;40710;51.120;13.136;2024-01-10T00:24:57;101001.22;;;-6.74;60.04
54329;BME280;40710;51.120;13.136;2024-01-10T00:27:22;100989.47;;;-6.28;58.53
54329;BME280;40710;51.120;13.136;2024-01-10T00:29:47;100994.88;;;-6.62;59.14
54329;BME280;40710;51.120;13.136;2024-01-10T00:32:11;100990.47;;;-6.24;58.64
54329;BME280;40710;51.120;13.136;2024-01-10T00:34:36;100992.38;;;-6.41;58.80
54329;BME280;40710;51.120;13.136;2024-01-10T00:37:00;100984.56;;;-6.23;58.26
54329;BME280;40710;51.120;13.136;2024-01-10T00:39:25;100990.19;;;-6.73;59.28
54329;BME280;40710;51.120;13.136;2024-01-10T00:41:49;100991.88;;;-6.33;58.72
54329;BME280;40710;51.120;13.136;2024-01-10T00:44:14;101002.56;;;-6.62;58.93
54329;BME280;40710;51.120;13.136;2024-01-10T00:46:38;100993.75;;;-6.29;58.56
54329;BME280;40710;51.120;13.136;2024-01-10T00:49:03;100992.91;;;-6.28;58.22
54329;BME280;40710;51.120;13.136;2024-01-10T00:51:27;100995.09;;;-6.16;58.35
54329;BME280;40710;51.120;13.136;2024-01-10T00:53:52;100995.06;;;-5.95;57.70
54329;BME280;40710;51.120;13.136;2024-01-10T00:56:16;101002.75;;;-6.77;58.97
54329;BME280;40710;51.120;13.136;2024-01-10T00:58:41;100999.38;;;-6.57;59.00
54329;BME280;40710;51.120;13.136;2024-01-10T01:01:06;100996.63;;;-6.61;59.39
54329;BME280;40710;51.120;13.136;2024-01-10T01:03:30;100998.66;;;-6.74;59.91
54329;BME280;40710;51.120;13.136;2024-01-10T01:05:55;101007.25;;;-6.91;60.03
54329;BME280;40710;51.120;13.136;2024-01-10T01:08:19;101003.03;;;-6.91;60.03
54329;BME280;40710;51.120;13.136;2024-01-10T01:10:44;100998.34;;;-7.01;59.61
54329;BME280;40710;51.120;13.136;2024-01-10T01:13:08;100991.47;;;-6.82;59.54
54329;BME280;40710;51.120;13.136;2024-01-10T01:15:33;100997.41;;;-6.83;59.45
54329;BME280;40710;51.120;13.136;2024-01-10T01:17:57;101010.03;;;-7.06;59.73
54329;BME280;40710;51.120;13.136;2024-01-10T01:20:22;101009.06;;;-7.08;59.87
54329;BME280;40710;51.120;13.136;2024-01-10T01:22:46;101007.25;;;-7.11;59.81
54329;BME280;40710;51.120;13.136;2024-01-10T01:25:11;101005.66;;;-7.09;59.39
54329;BME280;40710;51.120;13.136;2024-01-10T01:27:36;100998.44;;;-6.78;59.51
54329;BME280;40710;51.120;13.136;2024-01-10T01:30:00;100989.44;;;-6.70;58.83
54329;BME280;40710;51.120;13.136;2024-01-10T01:32:25;100980.91;;;-6.71;57.83
54329;BME280;40710;51.120;13.136;2024-01-10T01:34:49;100987.41;;;-6.77;58.74
54329;BME280;40710;51.120;13.136;2024-01-10T01:37:14;100984.25;;;-6.91;58.83
54329;BME280;40710;51.120;13.136;2024-01-10T01:39:38;100978.75;;;-6.81;58.53
54329;BME280;40710;51.120;13.136;2024-01-10T01:42:03;100979.47;;;-7.03;58.36
54329;BME280;40710;51.120;13.136;2024-01-10T01:44:28;100983.03;;;-7.19;59.06
54329;BME280;40710;51.120;13.136;2024-01-10T01:46:53;100977.47;;;-7.10;58.84
54329;BME280;40710;51.120;13.136;2024-01-10T01:49:18;100981.19;;;-7.04;58.80
54329;BME280;40710;51.120;13.136;2024-01-10T01:51:43;100976.72;;;-6.69;58.24
54329;BME280;40710;51.120;13.136;2024-01-10T01:54:08;100971.94;;;-6.40;57.25
54329;BME280;40710;51.120;13.136;2024-01-10T01:56:35;100975.91;;;-7.07;57.89
54329;BME280;40710;51.120;13.136;2024-01-10T01:59:00;100983.34;;;-7.13;58.81
54329;BME280;40710;51.120;13.136;2024-01-10T02:01:24;100975.13;;;-7.06;58.82
54329;BME280;40710;51.120;13.136;2024-01-10T02:03:49;100982.41;;;-7.15;58.76
54329;BME280;40710;51.120;13.136;2024-01-10T02:06:14;100975.41;;;-6.80;58.72
54329;BME280;40710;51.120;13.136;2024-01-10T02:08:38;100980.63;;;-6.96;58.95
54329;BME280;40710;51.120;13.136;2024-01-10T02:11:03;100982.66;;;-7.09;59.20
54329;BME280;40710;51.120;13.136;2024-01-10T02:13:29;100983.03;;;-6.99;59.32
54329;BME280;40710;51.120;13.136;2024-01-10T02:15:54;100970.50;;;-6.54;58.61
54329;BME280;40710;51.120;13.136;2024-01-10T02:18:19;100969.28;;;-6.83;58.81
54329;BME280;40710;51.120;13.136;2024-01-10T02:20:44;100968.00;;;-6.93;58.23
54329;BME280;40710;51.120;13.136;2024-01-10T02:23:09;100970.56;;;-6.93;58.26
54329;BME280;40710;51.120;13.136;2024-01-10T02:25:34;100972.56;;;-7.06;58.83
54329;BME280;40710;51.120;13.136;2024-01-10T02:27:59;100967.53;;;-7.04;59.13
54329;BME280;40710;51.120;13.136;2024-01-10T02:30:23;100969.69;;;-7.13;59.52
54329;BME280;40710;51.120;13.136;2024-01-10T02:32:48;100963.16;;;-7.07;59.24
54329;BME280;40710;51.120;13.136;2024-01-10T02:35:12;100977.00;;;-7.21;59.69
54329;BME280;40710;51.120;13.136;2024-01-10T02:37:37;100960.59;;;-6.87;59.68
54329;BME280;40710;51.120;13.136;2024-01-10T02:40:02;100963.75;;;-6.93;59.47
54329;BME280;40710;51.120;13.136;2024-01-10T02:42:27;100968.41;;;-7.04;59.85
54329;BME280;40710;51.120;13.136;2024-01-10T02:44:53;100962.81;;;-6.95;59.84
54329;BME280;40710;51.120;13.136;2024-01-10T02:47:17;100955.75;;;-7.00;59.39
54329;BME280;40710;51.120;13.136;2024-01-10T02:49:42;100963.56;;;-7.17;60.15
54329;BME280;40710;51.120;13.136;2024-01-10T02:52:06;100965.44;;;-7.13;59.90
54329;BME280;40710;51.120;13.136;2024-01-10T02:54:31;100960.41;;;-6.92;58.89
54329;BME280;40710;51.120;13.136;2024-01-10T02:56:55;100971.50;;;-7.30;59.68
54329;BME280;40710;51.120;13.136;2024-01-10T02:59:20;100968.94;;;-7.30;59.53
54329;BME280;40710;51.120;13.136;2024-01-10T03:01:45;100958.84;;;-6.88;58.60
54329;BME280;40710;51.120;13.136;2024-01-10T03:04:09;100956.69;;;-6.98;58.17
54329;BME280;40710;51.120;13.136;2024-01-10T03:06:34;100950.41;;;-6.86;58.52
54329;BME280;40710;51.120;13.136;2024-01-10T03:08:58;100964.91;;;-7.63;59.67
54329;BME280;40710;51.120;13.136;2024-01-10T03:11:23;100955.75;;;-7.00;58.88
54329;BME280;40710;51.120;13.136;2024-01-10T03:13:50;100955.75;;;-7.39;58.99
54329;BME280;40710;51.120;13.136;2024-01-10T03:16:15;100949.91;;;-6.98;58.21
54329;BME280;40710;51.120;13.136;2024-01-10T03:18:40;100957.44;;;-7.20;58.69
54329;BME280;40710;51.120;13.136;2024-01-10T03:21:04;100955.63;;;-7.23;58.34
54329;BME280;40710;51.120;13.136;2024-01-10T03:23:29;100950.09;;;-6.93;57.47
54329;BME280;40710;51.120;13.136;2024-01-10T03:25:54;100954.00;;;-7.21;58.09
54329;BME280;40710;51.120;13.136;2024-01-10T03:28:18;100955.59;;;-7.62;59.63
54329;BME280;40710;51.120;13.136;2024-01-10T03:30:43;100959.19;;;-7.39;59.43
54329;BME280;40710;51.120;13.136;2024-01-10T03:33:07;100961.03;;;-7.54;59.65
54329;BME280;40710;51.120;13.136;2024-01-10T03:35:32;100956.84;;;-7.34;58.24
54329;BME280;40710;51.120;13.136;2024-01-10T03:37:57;100943.47;;;-7.09;58.16
54329;BME280;40710;51.120;13.136;2024-01-10T03:40:21;100932.47;;;-7.07;58.26
54329;BME280;40710;51.120;13.136;2024-01-10T03:42:46;100930.47;;;-7.14;58.56
54329;BME280;40710;51.120;13.136;2024-01-10T03:45:11;100926.78;;;-7.40;59.35
54329;BME280;40710;51.120;13.136;2024-01-10T03:47:35;100938.53;;;-7.44;58.76
54329;BME280;40710;51.120;13.136;2024-01-10T03:50:00;100935.88;;;-7.27;58.88
54329;BME280;40710;51.120;13.136;2024-01-10T03:52:24;100925.50;;;-7.11;58.26
54329;BME280;40710;51.120;13.136;2024-01-10T03:54:49;100921.06;;;-6.95;58.14
54329;BME280;40710;51.120;13.136;2024-01-10T03:57:13;100913.00;;;-7.05;57.45
54329;BME280;40710;51.120;13.136;2024-01-10T03:59:38;100926.16;;;-7.54;58.69
54329;BME280;40710;51.120;13.136;2024-01-10T04:02:03;100920.34;;;-7.32;58.07
54329;BME280;40710;51.120;13.136;2024-01-10T04:04:28;100929.41;;;-7.38;58.80
54329;BME280;40710;51.120;13.136;2024-01-10T04:06:52;100928.22;;;-7.65;58.91
54329;BME280;40710;51.120;13.136;2024-01-10T04:09:17;100931.38;;;-7.70;59.42
54329;BME280;40710;51.120;13.136;2024-01-10T04:11:41;100931.88;;;-7.60;59.71
54329;BME280;40710;51.120;13.136;2024-01-10T04:14:06;100926.38;;;-7.49;59.08
54329;BME280;40710;51.120;13.136;2024-01-10T04:16:30;100934.31;;;-7.81;59.98
54329;BME280;40710;51.120;13.136;2024-01-10T04:18:55;100927.13;;;-7.70;59.69
54329;BME280;40710;51.120;13.136;2024-01-10T04:21:19;100923.19;;;-7.63;59.60
54329;BME280;40710;51.120;13.136;2024-01-10T04:23:44;100923.59;;;-7.54;59.66
54329;BME280;40710;51.120;13.136;2024-01-10T04:26:08;100916.22;;;-7.67;60.08
54329;BME280;40710;51.120;13.136;2024-01-10T04:28:33;100918.84;;;-7.66;59.65
54329;BME280;40710;51.120;13.136;2024-01-10T04:30:58;100918.69;;;-7.69;59.29
54329;BME280;40710;51.120;13.136;2024-01-10T04:33:22;100929.06;;;-8.56;62.36
54329;BME280;40710;51.120;13.136;2024-01-10T04:35:47;100937.41;;;-8.06;61.11
54329;BME280;40710;51.120;13.136;2024-01-10T04:38:11;100937.03;;;-7.58;59.68
54329;BME280;40710;51.120;13.136;2024-01-10T04:40:36;100932.16;;;-7.71;60.84
54329;BME280;40710;51.120;13.136;2024-01-10T04:43:01;100924.19;;;-7.60;60.38
54329;BME280;40710;51.120;13.136;2024-01-10T04:45:25;100936.66;;;-8.03;60.62
54329;BME280;40710;51.120;13.136;2024-01-10T04:47:50;100920.47;;;-7.29;59.05
54329;BME280;40710;51.120;13.136;2024-01-10T04:50:14;100929.44;;;-6.98;58.36
54329;BME280;40710;51.120;13.136;2024-01-10T04:52:39;100923.13;;;-7.45;58.71
54329;BME280;40710;51.120;13.136;2024-01-10T04:55:03;100935.97;;;-7.63;60.35
54329;BME280;40710;51.120;13.136;2024-01-10T04:57:30;100926.25;;;-7.13;59.81
54329;BME280;40710;51.120;13.136;2024-01-10T04:59:54;100930.03;;;-6.84;58.81
54329;BME280;40710;51.120;13.136;2024-01-10T05:02:19;100925.41;;;-6.93;58.66
54329;BME280;40710;51.120;13.136;2024-01-10T05:04:43;100927.03;;;-6.95;58.97
54329;BME280;40710;51.120;13.136;2024-01-10T05:07:08;100924.84;;;-6.87;59.07
54329;BME280;40710;51.120;13.136;2024-01-10T05:09:32;100936.59;;;-7.49;60.23
54329;BME280;40710;51.120;13.136;2024-01-10T05:11:57;100940.97;;;-7.47;60.60
54329;BME280;40710;51.120;13.136;2024-01-10T05:14:22;100940.66;;;-7.72;60.79
54329;BME280;40710;51.120;13.136;2024-01-10T05:16:47;100934.22;;;-7.64;59.97
54329;BME280;40710;51.120;13.136;2024-01-10T05:19:12;100933.69;;;-7.57;60.21
54329;BME280;40710;51.120;13.136;2024-01-10T05:21:36;100935.56;;;-7.53;59.66
54329;BME280;40710;51.120;13.136;2024-01-10T05:24:01;100942.41;;;-7.89;59.55
54329;BME280;40710;51.120;13.136;2024-01-10T05:26:26;100933.28;;;-7.84;60.09
54329;BME280;40710;51.120;13.136;2024-01-10T05:28:50;100928.13;;;-7.86;59.49
54329;BME280;40710;51.120;13.136;2024-01-10T05:31:15;100928.22;;;-7.65;60.23
54329;BME280;40710;51.120;13.136;2024-01-10T05:33:40;100926.34;;;-7.69;60.21
54329;BME280;40710;51.120;13.136;2024-01-10T05:36:06;100936.09;;;-7.60;59.46
54329;BME280;40710;51.120;13.136;2024-01-10T05:38:31;100931.03;;;-7.78;59.49
54329;BME280;40710;51.120;13.136;2024-01-10T05:40:55;100924.50;;;-7.53;59.75
54329;BME280;40710;51.120;13.136;2024-01-10T05:43:20;100932.34;;;-7.49;59.11
54329;BME280;40710;51.120;13.136;2024-01-10T05:45:46;100932.81;;;-7.57;59.13
54329;BME280;40710;51.120;13.136;2024-01-10T05:48:10;100921.13;;;-7.52;59.20
54329;BME280;40710;51.120;13.136;2024-01-10T05:50:35;100919.38;;;-7.53;59.02
54329;BME280;40710;51.120;13.136;2024-01-10T05:52:59;100921.09;;;-7.34;58.61
54329;BME280;40710;51.120;13.136;2024-01-10T05:55:24;100918.78;;;-7.28;58.31
54329;BME280;40710;51.120;13.136;2024-01-10T05:57:49;100927.38;;;-7.46;58.60
54329;BME280;40710;51.120;13.136;2024-01-10T06:00:14;100930.47;;;-7.53;58.76
54329;BME280;40710;51.120;13.136;2024-01-10T06:02:43;100919.69;;;-7.65;58.92
54329;BME280;40710;51.120;13.136;2024-01-10T06:05:08;100922.81;;;-7.33;59.07
54329;BME280;40710;51.120;13.136;2024-01-10T06:07:33;100933.44;;;-7.44;59.30
54329;BME280;40710;51.120;13.136;2024-01-10T06:09:58;100930.13;;;-7.61;58.75
54329;BME280;40710;51.120;13.136;2024-01-10T06:12:22;100938.53;;;-7.81;60.28
54329;BME280;40710;51.120;13.136;2024-01-10T06:14:47;100919.41;;;-7.34;58.62
54329;BME280;40710;51.120;13.136;2024-01-10T06:17:11;100924.97;;;-7.23;58.45
54329;BME280;40710;51.120;13.136;2024-01-10T06:19:36;100928.09;;;-7.68;58.65
54329;BME280;40710;51.120;13.136;2024-01-10T06:22:00;100929.00;;;-7.48;58.17
54329;BME280;40710;51.120;13.136;2024-01-10T06:24:26;100928.47;;;-7.41;58.42
54329;BME280;40710;51.120;13.136;2024-01-10T06:26:50;100926.38;;;-7.49;58.48
54329;BME280;40710;51.120;13.136;2024-01-10T06:29:15;100930.38;;;-7.74;58.80
54329;BME280;40710;51.120;13.136;2024-01-10T06:31:40;100934.78;;;-8.07;59.68
54329;BME280;40710;51.120;13.136;2024-01-10T06:34:05;100933.44;;;-7.44;58.56
54329;BME280;40710;51.120;13.136;2024-01-10T06:36:29;100925.50;;;-7.30;58.05
54329;BME280;40710;51.120;13.136;2024-01-10T06:38:54;100917.94;;;-7.29;58.22
54329;BME280;40710;51.120;13.136;2024-01-10T06:41:21;100918.00;;;-7.27;57.61
54329;BME280;40710;51.120;13.136;2024-01-10T06:43:47;100940.38;;;-7.59;58.69
54329;BME280;40710;51.120;13.136;2024-01-10T06:46:12;100936.97;;;-7.60;59.16
54329;BME280;40710;51.120;13.136;2024-01-10T06:48:36;100935.13;;;-8.00;59.04
54329;BME280;40710;51.120;13.136;2024-01-10T06:51:01;100926.13;;;-7.73;59.56
54329;BME280;40710;51.120;13.136;2024-01-10T06:53:26;100929.78;;;-7.49;58.87
54329;BME280;40710;51.120;13.136;2024-01-10T06:55:50;100923.34;;;-7.41;58.15
54329;BME280;40710;51.120;13.136;2024-01-10T06:58:15;100918.09;;;-7.44;58.41
54329;BME280;40710;51.120;13.136;2024-01-10T07:00:39;100916.38;;;-7.25;58.25
54329;BME280;40710;51.120;13.136;2024-01-10T07:03:04;100923.78;;;-7.69;58.99
54329;BME280;40710;51.120;13.136;2024-01-10T07:05:29;100928.34;;;-7.81;59.51
54329;BME280;40710;51.120;13.136;2024-01-10T07:07:55;100921.72;;;-7.58;59.38
54329;BME280;40710;51.120;13.136;2024-01-10T07:10:20;100925.66;;;-7.47;59.25
54329;BME280;40710;51.120;13.136;2024-01-10T07:12:44;100929.16;;;-7.63;59.32
54329;BME280;40710;51.120;13.136;2024-01-10T07:15:09;100924.66;;;-7.68;59.12
54329;BME280;40710;51.120;13.136;2024-01-10T07:17:34;100920.63;;;-7.63;59.06
54329;BME280;40710;51.120;13.136;2024-01-10T07:19:58;100914.63;;;-7.26;58.68
54329;BME280;40710;51.120;13.136;2024-01-10T07:22:23;100909.38;;;-7.29;58.48
54329;BME280;40710;51.120;13.136;2024-01-10T07:24:47;100921.00;;;-7.55;59.40
54329;BME280;40710;51.120;13.136;2024-01-10T07:27:12;100917.38;;;-7.41;59.53
54329;BME280;40710;51.120;13.136;2024-01-10T07:29:38;100913.94;;;-7.03;59.28
54329;BME280;40710;51.120;13.136;2024-01-10T07:32:03;100910.03;;;-7.33;59.90
54329;BME280;40710;51.120;13.136;2024-01-10T07:34:28;100907.31;;;-7.18;59.83
54329;BME280;40710;51.120;13.136;2024-01-10T07:36:52;100913.56;;;-6.91;58.92
54329;BME280;40710;51.120;13.136;2024-01-10T07:39:18;100916.16;;;-6.70;58.29
54329;BME280;40710;51.120;13.136;2024-01-10T07:41:42;100916.09;;;-6.92;58.84
54329;BME280;40710;51.120;13.136;2024-01-10T07:44:07;100924.22;;;-6.81;58.59
54329;BME280;40710;51.120;13.136;2024-01-10T07:46:33;100920.78;;;-6.61;57.88
54329;BME280;40710;51.120;13.136;2024-01-10T07:48:58;100919.84;;;-6.63;58.02
54329;BME280;40710;51.120;13.136;2024-01-10T07:51:24;100926.34;;;-6.50;57.57
54329;BME280;40710;51.120;13.136;2024-01-10T07:53:49;100926.94;;;-6.77;58.74
54329;BME280;40710;51.120;13.136;2024-01-10T07:56:13;100931.00;;;-6.61;58.45
54329;BME280;40710;51.120;13.136;2024-01-10T07:58:38;100921.84;;;-6.35;58.12
54329;BME280;40710;51.120;13.136;2024-01-10T08:01:03;100923.84;;;-6.28;57.77
54329;BME280;40710;51.120;13.136;2024-01-10T08:03:27;100927.09;;;-6.32;58.35
54329;BME280;40710;51.120;13.136;2024-01-10T08:05:52;100929.50;;;-6.35;57.94
54329;BME280;40710;51.120;13.136;2024-01-10T08:08:16;100916.69;;;-6.15;58.00
54329;BME280;40710;51.120;13.136;2024-01-10T08:10:42;100927.94;;;-6.31;58.07
54329;BME280;40710;51.120;13.136;2024-01-10T08:13:06;100929.72;;;-6.30;59.27
54329;BME280;40710;51.120;13.136;2024-01-10T08:15:31;100924.91;;;-5.55;57.13
54329;BME280;40710;51.120;13.136;2024-01-10T08:17:58;100918.59;;;-5.40;57.29
54329;BME280;40710;51.120;13.136;2024-01-10T08:20:23;100909.81;;;-4.99;55.93
54329;BME280;40710;51.120;13.136;2024-01-10T08:22:48;100911.53;;;-4.73;54.93
54329;BME280;40710;51.120;13.136;2024-01-10T08:25:13;100902.75;;;-4.29;54.29
54329;BME280;40710;51.120;13.136;2024-01-10T08:27:39;100904.84;;;-4.15;53.93
54329;BME280;40710;51.120;13.136;2024-01-10T08:30:05;100889.69;;;-3.79;53.44
54329;BME280;40710;51.120;13.136;2024-01-10T08:32:30;100884.66;;;-3.46;53.05
54329;BME280;40710;51.120;13.136;2024-01-10T08:34:54;100883.25;;;-3.04;52.16
54329;BME280;40710;51.120;13.136;2024-01-10T08:37:19;100876.94;;;-2.83;51.99
54329;BME280;40710;51.120;13.136;2024-01-10T08:39:43;100864.06;;;-2.11;50.87
54329;BME280;40710;51.120;13.136;2024-01-10T08:42:08;100864.78;;;-1.78;49.97
54329;BME280;40710;51.120;13.136;2024-01-10T08:44:34;100859.16;;;-1.60;49.51
54329;BME280;40710;51.120;13.136;2024-01-10T08:46:59;100860.78;;;-1.64;49.81
54329;BME280;40710;51.120;13.136;2024-01-10T08:49:23;100860.16;;;-1.93;49.40
54329;BME280;40710;51.120;13.136;2024-01-10T08:51:48;100870.19;;;-2.43;50.98
54329;BME280;40710;51.120;13.136;2024-01-10T08:54:13;100864.47;;;-1.51;49.58
54329;BME280;40710;51.120;13.136;2024-01-10T08:56:41;100865.56;;;-1.40;48.52
54329;BME280;40710;51.120;13.136;2024-01-10T08:59:05;100860.91;;;-1.13;48.62
54329;BME280;40710;51.120;13.136;2024-01-10T09:01:30;100862.03;;;-0.99;48.00
54329;BME280;40710;51.120;13.136;2024-01-10T09:03:55;100853.13;;;-0.68;47.99
54329;BME280;40710;51.120;13.136;2024-01-10T09:06:19;100844.00;;;0.15;45.73
54329;BME280;40710;51.120;13.136;2024-01-10T09:08:45;100853.06;;;-0.17;46.83
54329;BME280;40710;51.120;13.136;2024-01-10T09:11:09;100864.91;;;-0.84;47.75
54329;BME280;40710;51.120;13.136;2024-01-10T09:13:34;100860.00;;;-0.13;47.96
54329;BME280;40710;51.120;13.136;2024-01-10T09:15:59;100846.72;;;1.01;45.78
54329;BME280;40710;51.120;13.136;2024-01-10T09:18:23;100840.78;;;1.13;44.97
54329;BME280;40710;51.120;13.136;2024-01-10T09:20:48;100835.34;;;0.85;45.02
54329;BME280;40710;51.120;13.136;2024-01-10T09:23:12;100831.63;;;1.52;44.23
54329;BME280;40710;51.120;13.136;2024-01-10T09:25:38;100830.28;;;2.14;43.55
54329;BME280;40710;51.120;13.136;2024-01-10T09:28:04;100837.13;;;2.04;44.11
54329;BME280;40710;51.120;13.136;2024-01-10T09:30:28;100826.09;;;2.42;42.58
54329;BME280;40710;51.120;13.136;2024-01-10T09:32:53;100825.31;;;2.77;42.01
54329;BME280;40710;51.120;13.136;2024-01-10T09:35:18;100826.22;;;2.92;42.09
54329;BME280;40710;51.120;13.136;2024-01-10T09:37:42;100827.09;;;3.18;41.78
54329;BME280;40710;51.120;13.136;2024-01-10T09:40:07;100821.06;;;3.32;41.77
54329;BME280;40710;51.120;13.136;2024-01-10T09:42:33;100827.97;;;3.57;41.13
54329;BME280;40710;51.120;13.136;2024-01-10T09:44:59;100813.25;;;3.56;41.59
54329;BME280;40710;51.120;13.136;2024-01-10T09:47:24;100809.72;;;3.88;41.16
54329;BME280;40710;51.120;13.136;2024-01-10T09:49:49;100809.59;;;4.21;41.04
54329;BME280;40710;51.120;13.136;2024-01-10T09:52:24;100804.16;;;4.74;40.32
54329;BME280;40710;51.120;13.136;2024-01-10T09:54:54;100790.75;;;5.28;39.42
54329;BME280;40710;51.120;13.136;2024-01-10T09:57:19;100794.41;;;5.01;39.58
54329;BME280;40710;51.120;13.136;2024-01-10T09:59:45;100782.84;;;5.35;39.34
54329;BME280;40710;51.120;13.136;2024-01-10T10:02:13;100790.66;;;5.36;39.61
54329;BME280;40710;51.120;13.136;2024-01-10T10:04:46;100779.81;;;5.79;38.76
54329;BME280;40710;51.120;13.136;2024-01-10T10:07:15;100779.59;;;6.04;37.77
54329;BME280;40710;51.120;13.136;2024-01-10T10:09:40;100768.97;;;6.81;36.74
54329;BME280;40710;51.120;13.136;2024-01-10T10:12:04;100770.28;;;6.51;36.64
54329;BME280;40710;51.120;13.136;2024-01-10T10:14:29;100775.31;;;6.67;35.99
54329;BME280;40710;51.120;13.136;2024-01-10T10:16:54;100765.75;;;7.20;35.79
54329;BME280;40710;51.120;13.136;2024-01-10T10:19:24;100765.91;;;7.61;35.91
54329;BME280;40710;51.120;13.136;2024-01-10T10:21:48;100765.47;;;7.37;35.99
54329;BME280;40710;51.120;13.136;2024-01-10T10:24:13;100763.00;;;7.78;36.08
54329;BME280;40710;51.120;13.136;2024-01-10T10:26:38;100765.53;;;8.26;36.10
54329;BME280;40710;51.120;13.136;2024-01-10T10:29:02;100760.97;;;7.90;35.39
54329;BME280;40710;51.120;13.136;2024-01-10T10:31:27;100762.53;;;7.03;36.13
54329;BME280;40710;51.120;13.136;2024-01-10T10:33:53;100754.41;;;7.69;35.49
54329;BME280;40710;51.120;13.136;2024-01-10T10:36:21;100756.25;;;7.64;35.19
54329;BME280;40710;51.120;13.136;2024-01-10T10:38:49;100732.72;;;8.50;33.67
54329;BME280;40710;51.120;13.136;2024-01-10T10:41:14;100738.66;;;8.16;33.31
54329;BME280;40710;51.120;13.136;2024-01-10T10:43:40;100734.25;;;8.59;32.73
54329;BME280;40710;51.120;13.136;2024-01-10T10:46:06;100734.66;;;8.79;32.55
54329;BME280;40710;51.120;13.136;2024-01-10T10:48:34;100744.56;;;8.26;33.76
54329;BME280;40710;51.120;13.136;2024-01-10T10:53:35;100743.06;;;8.94;32.73
54329;BME280;40710;51.120;13.136;2024-01-10T10:56:04;100740.13;;;8.70;32.42
54329;BME280;40710;51.120;13.136;2024-01-10T10:58:34;100733.81;;;9.48;31.37
54329;BME280;40710;51.120;13.136;2024-01-10T11:00:59;100730.06;;;9.58;31.52
54329;BME280;40710;51.120;13.136;2024-01-10T11:03:25;100731.16;;;9.49;31.31
54329;BME280;40710;51.120;13.136;2024-01-10T11:05:51;100732.94;;;9.14;31.58
54329;BME280;40710;51.120;13.136;2024-01-10T11:08:19;100723.69;;;10.28;30.42
54329;BME280;40710;51.120;13.136;2024-01-10T11:10:48;100733.19;;;9.38;31.30
54329;BME280;40710;51.120;13.136;2024-01-10T11:13:47;100726.84;;;9.79;30.93
54329;BME280;40710;51.120;13.136;2024-01-10T11:16:40;100727.78;;;8.75;31.12
54329;BME280;40710;51.120;13.136;2024-01-10T11:22:18;100731.94;;;9.18;31.31
54329;BME280;40710;51.120;13.136;2024-01-10T11:24:45;100722.28;;;9.86;31.17
54329;BME280;40710;51.120;13.136;2024-01-10T11:27:12;100726.53;;;10.20;30.33
54329;BME280;40710;51.120;13.136;2024-01-10T11:29:38;100718.56;;;10.53;28.96
54329;BME280;40710;51.120;13.136;2024-01-10T11:32:06;100718.91;;;9.50;29.83
54329;BME280;40710;51.120;13.136;2024-01-10T11:34:34;100718.44;;;9.34;29.94
54329;BME280;40710;51.120;13.136;2024-01-10T11:37:12;100718.59;;;8.93;29.81
54329;BME280;40710;51.120;13.136;2024-01-10T11:39:36;100719.06;;;9.43;29.42
54329;BME280;40710;51.120;13.136;2024-01-10T11:42:02;100720.31;;;10.54;30.27
54329;BME280;40710;51.120;13.136;2024-01-10T11:44:27;100723.41;;;10.38;30.20
54329;BME280;40710;51.120;13.136;2024-01-10T11:46:54;100718.25;;;10.04;29.52
54329;BME280;40710;51.120;13.136;2024-01-10T11:49:20;100731.56;;;8.62;32.12
54329;BME280;40710;51.120;13.136;2024-01-10T11:51:46;100719.03;;;9.76;30.93
54329;BME280;40710;51.120;13.136;2024-01-10T11:54:50;100719.50;;;10.22;30.25
54329;BME280;40710;51.120;13.136;2024-01-10T11:59:43;100713.69;;;10.40;29.70
54329;BME280;40710;51.120;13.136;2024-01-10T12:02:10;100712.22;;;10.00;29.61
54329;BME280;40710;51.120;13.136;2024-01-10T12:04:34;100711.22;;;9.75;29.53
54329;BME280;40710;51.120;13.136;2024-01-10T12:07:02;100711.03;;;9.81;29.95
54329;BME280;40710;51.120;13.136;2024-01-10T12:09:26;100718.81;;;9.20;31.20
54329;BME280;40710;51.120;13.136;2024-01-10T12:11:51;100714.97;;;9.33;30.87
54329;BME280;40710;51.120;13.136;2024-01-10T12:14:15;100702.22;;;9.83;30.23
54329;BME280;40710;51.120;13.136;2024-01-10T12:16:41;100704.66;;;9.58;30.28
54329;BME280;40710;51.120;13.136;2024-01-10T12:19:06;100694.53;;;10.37;28.79
54329;BME280;40710;51.120;13.136;2024-01-10T12:21:30;100704.44;;;9.00;30.92
54329;BME280;40710;51.120;13.136;2024-01-10T12:23:55;100698.66;;;9.86;29.41
54329;BME280;40710;51.120;13.136;2024-01-10T12:26:19;100701.19;;;10.19;28.80
54329;BME280;40710;51.120;13.136;2024-01-10T12:28:58;100703.31;;;10.06;30.03
54329;BME280;40710;51.120;13.136;2024-01-10T12:31:23;100702.13;;;9.55;29.96
54329;BME280;40710;51.120;13.136;2024-01-10T12:33:49;100703.38;;;9.42;29.84
54329;BME280;40710;51.120;13.136;2024-01-10T12:36:17;100706.25;;;10.25;28.99
54329;BME280;40710;51.120;13.136;2024-01-10T12:38:41;100699.25;;;9.96;28.88
54329;BME280;40710;51.120;13.136;2024-01-10T12:41:06;100693.56;;;9.80;29.19